Etusivu
METAR-TAF:

METAR-TAF

Lentoasemat :

Ródoksen kansainvälinen lentoasema

Rodos, Kreikka

Leveyspiiri: 36-24N, Pituuspiiri: 028-05E, korkeus merenpinnasta: 4 m

Tämänhetkinen sää

Tämä raportti tehtiin 26 minuuttia sitten, kello 15.20 UTC
Tuuli 15 kn lännestä/lounaasta
Lämpötila 25°C
Kosteus 57%
Ilmanpaine 1010 hPa
Näkyvyys 10 km tai enemmän
Muutamia pilviä 1800 ft:n korkeudessa

METAR: LGRP 241520Z 25015KT 9999 FEW018 25/16 Q1010 NOSIG

Aika: 18:46 (15:46 UTC)

Sääennuste

Tämä raportti tehtiin 4 tuntia ja 46 minuuttia sitten, kello 11.00 UTC
Ennuste voimassa 24. päivästä klo 12 UTC - 25. päivään klo 12 UTC
Tuuli 18 kn lännestä/lounaasta
Näkyvyys 10 km tai enemmän
Muutamia pilviä 1800 ft:n korkeudessa
Ajoittain
24. päivästä klo 12 UTC - 24. päivään klo 21 UTC
Tuuli 18 kn lännestä/lounaasta puuskistuen 30 kn:hen

TAF: LGRP 241100Z 2412/2512 25018KT 9999 FEW018 TEMPO 2412/2421 25018G30KT

Säähavainnot ja -ennusteet yli 4000 lentoasemalta (METAR- ja TAF-raportit).

Käytössä olevat sääasemat on merkitty karttaan keltaisilla ja punaisilla pisteillä.

Aseta hiiri pisteen päälle nähdäksesi sääaseman nimen.

Klikkaa sitten nähdäksesi säähavainnot ja -ennusteet.

Kartan vaihtaminen: klikkaa mustalla rastilla varustettuja vihreitä pisteitä, niin voit zoomata sisään; viivalla varustettua vihreää pistettä, niin voit zoomata ulos tai vihreitä nuolia, niin pääset viereisille kartoille.


METAR-TAF: